sensor_id;sensor_type;location;lat;lon;timestamp;pressure;altitude;pressure_sealevel;temperature;humidity
46087;BME280;31824;49.648;8.640;2023-02-13T00:00:10;102440.44;;;1.50;100.00
46087;BME280;31824;49.648;8.640;2023-02-13T00:03:13;102436.97;;;1.34;100.00
46087;BME280;31824;49.648;8.640;2023-02-13T00:06:15;102422.59;;;1.31;100.00
46087;BME280;31824;49.648;8.640;2023-02-13T00:09:17;102433.44;;;1.34;100.00
46087;BME280;31824;49.648;8.640;2023-02-13T00:12:20;102436.47;;;1.31;100.00
46087;BME280;31824;49.648;8.640;2023-02-13T00:15:22;102429.78;;;1.22;100.00
46087;BME280;31824;49.648;8.640;2023-02-13T00:18:24;102427.44;;;1.24;100.00
46087;BME280;31824;49.648;8.640;2023-02-13T00:21:26;102426.00;;;1.20;100.00
46087;BME280;31824;49.648;8.640;2023-02-13T00:24:28;102424.53;;;1.16;100.00
46087;BME280;31824;49.648;8.640;2023-02-13T00:27:32;102423.53;;;1.10;100.00
46087;BME280;31824;49.648;8.640;2023-02-13T00:30:35;102420.31;;;1.17;100.00
46087;BME280;31824;49.648;8.640;2023-02-13T00:33:37;102434.50;;;1.25;100.00
46087;BME280;31824;49.648;8.640;2023-02-13T00:36:39;102418.47;;;1.22;100.00
46087;BME280;31824;49.648;8.640;2023-02-13T00:39:41;102431.19;;;1.20;100.00
46087;BME280;31824;49.648;8.640;2023-02-13T00:42:45;102420.31;;;1.38;100.00
46087;BME280;31824;49.648;8.640;2023-02-13T00:45:46;102419.38;;;1.64;100.00
46087;BME280;31824;49.648;8.640;2023-02-13T00:48:48;102421.44;;;1.56;100.00
46087;BME280;31824;49.648;8.640;2023-02-13T00:51:50;102427.06;;;1.53;100.00
46087;BME280;31824;49.648;8.640;2023-02-13T00:54:52;102423.28;;;1.30;100.00
46087;BME280;31824;49.648;8.640;2023-02-13T00:57:55;102432.59;;;1.24;100.00
46087;BME280;31824;49.648;8.640;2023-02-13T01:00:56;102425.94;;;1.14;100.00
46087;BME280;31824;49.648;8.640;2023-02-13T01:03:59;102431.56;;;1.12;100.00
46087;BME280;31824;49.648;8.640;2023-02-13T01:07:01;102422.44;;;1.20;100.00
46087;BME280;31824;49.648;8.640;2023-02-13T01:10:03;102430.97;;;1.03;100.00
46087;BME280;31824;49.648;8.640;2023-02-13T01:13:07;102425.03;;;0.98;100.00
46087;BME280;31824;49.648;8.640;2023-02-13T01:16:09;102430.66;;;0.96;100.00
46087;BME280;31824;49.648;8.640;2023-02-13T01:19:11;102424.19;;;0.88;100.00
46087;BME280;31824;49.648;8.640;2023-02-13T01:22:13;102426.13;;;1.31;100.00
46087;BME280;31824;49.648;8.640;2023-02-13T01:25:15;102424.03;;;1.13;100.00
46087;BME280;31824;49.648;8.640;2023-02-13T01:28:18;102425.84;;;1.09;100.00
46087;BME280;31824;49.648;8.640;2023-02-13T01:31:20;102418.75;;;1.02;100.00
46087;BME280;31824;49.648;8.640;2023-02-13T01:34:24;102421.16;;;0.91;100.00
46087;BME280;31824;49.648;8.640;2023-02-13T01:37:25;102423.44;;;0.83;100.00
46087;BME280;31824;49.648;8.640;2023-02-13T01:40:27;102424.38;;;0.84;100.00
46087;BME280;31824;49.648;8.640;2023-02-13T01:43:49;102423.47;;;0.68;100.00
46087;BME280;31824;49.648;8.640;2023-02-13T01:46:53;102413.56;;;0.65;100.00
46087;BME280;31824;49.648;8.640;2023-02-13T01:50:03;102419.84;;;0.62;100.00
46087;BME280;31824;49.648;8.640;2023-02-13T01:53:10;102422.44;;;0.62;100.00
46087;BME280;31824;49.648;8.640;2023-02-13T01:56:16;102414.06;;;0.69;100.00
46087;BME280;31824;49.648;8.640;2023-02-13T01:59:24;102410.25;;;0.66;100.00
46087;BME280;31824;49.648;8.640;2023-02-13T02:02:28;102406.84;;;0.56;100.00
46087;BME280;31824;49.648;8.640;2023-02-13T02:05:35;102414.84;;;0.58;100.00
46087;BME280;31824;49.648;8.640;2023-02-13T02:08:37;102418.38;;;0.58;100.00
46087;BME280;31824;49.648;8.640;2023-02-13T02:11:47;102414.84;;;0.58;100.00
46087;BME280;31824;49.648;8.640;2023-02-13T02:14:54;102413.22;;;0.58;100.00
46087;BME280;31824;49.648;8.640;2023-02-13T02:17:58;102414.09;;;0.53;100.00
46087;BME280;31824;49.648;8.640;2023-02-13T02:25:20;102406.22;;;0.47;100.00
46087;BME280;31824;49.648;8.640;2023-02-13T02:28:44;102398.72;;;0.49;100.00
46087;BME280;31824;49.648;8.640;2023-02-13T02:32:11;102400.13;;;0.47;100.00
46087;BME280;31824;49.648;8.640;2023-02-13T02:35:23;102404.88;;;0.49;100.00
46087;BME280;31824;49.648;8.640;2023-02-13T02:38:39;102407.38;;;0.44;100.00
46087;BME280;31824;49.648;8.640;2023-02-13T02:42:03;102402.72;;;0.47;100.00
46087;BME280;31824;49.648;8.640;2023-02-13T02:45:23;102400.28;;;0.58;100.00
46087;BME280;31824;49.648;8.640;2023-02-13T02:48:31;102401.81;;;0.67;100.00
46087;BME280;31824;49.648;8.640;2023-02-13T02:52:02;102400.09;;;0.62;100.00
46087;BME280;31824;49.648;8.640;2023-02-13T02:55:15;102393.84;;;0.50;100.00
46087;BME280;31824;49.648;8.640;2023-02-13T02:58:29;102409.72;;;0.42;100.00
46087;BME280;31824;49.648;8.640;2023-02-13T03:01:53;102400.50;;;0.39;100.00
46087;BME280;31824;49.648;8.640;2023-02-13T03:05:20;102410.31;;;0.36;100.00
46087;BME280;31824;49.648;8.640;2023-02-13T03:08:44;102404.50;;;0.58;100.00
46087;BME280;31824;49.648;8.640;2023-02-13T03:12:07;102404.78;;;0.44;100.00
46087;BME280;31824;49.648;8.640;2023-02-13T03:15:28;102403.06;;;0.39;100.00
46087;BME280;31824;49.648;8.640;2023-02-13T03:18:32;102398.91;;;0.97;100.00
46087;BME280;31824;49.648;8.640;2023-02-13T03:21:58;102401.63;;;0.72;100.00
46087;BME280;31824;49.648;8.640;2023-02-13T03:25:25;102412.88;;;0.51;100.00
46087;BME280;31824;49.648;8.640;2023-02-13T03:28:43;102419.88;;;0.46;100.00
46087;BME280;31824;49.648;8.640;2023-02-13T03:32:12;102412.84;;;0.66;100.00
46087;BME280;31824;49.648;8.640;2023-02-13T03:35:26;102418.56;;;0.54;100.00
46087;BME280;31824;49.648;8.640;2023-02-13T03:38:56;102414.00;;;0.47;100.00
46087;BME280;31824;49.648;8.640;2023-02-13T03:42:03;102419.09;;;0.42;100.00
46087;BME280;31824;49.648;8.640;2023-02-13T03:45:10;102421.00;;;0.43;100.00
46087;BME280;31824;49.648;8.640;2023-02-13T03:48:35;102425.03;;;0.31;100.00
46087;BME280;31824;49.648;8.640;2023-02-13T03:51:59;102423.44;;;0.31;100.00
46087;BME280;31824;49.648;8.640;2023-02-13T03:55:07;102418.44;;;0.27;100.00
46087;BME280;31824;49.648;8.640;2023-02-13T03:58:31;102423.00;;;0.34;100.00
46087;BME280;31824;49.648;8.640;2023-02-13T04:01:59;102416.34;;;0.30;100.00
46087;BME280;31824;49.648;8.640;2023-02-13T04:05:06;102417.97;;;0.30;100.00
46087;BME280;31824;49.648;8.640;2023-02-13T04:08:09;102415.56;;;0.26;100.00
46087;BME280;31824;49.648;8.640;2023-02-13T04:11:16;102416.78;;;0.28;100.00
46087;BME280;31824;49.648;8.640;2023-02-13T04:14:21;102417.03;;;0.29;100.00
46087;BME280;31824;49.648;8.640;2023-02-13T04:17:33;102407.81;;;0.26;100.00
46087;BME280;31824;49.648;8.640;2023-02-13T04:20:37;102404.25;;;0.41;100.00
46087;BME280;31824;49.648;8.640;2023-02-13T04:23:39;102415.22;;;0.49;100.00
46087;BME280;31824;49.648;8.640;2023-02-13T04:26:42;102419.97;;;0.52;100.00
46087;BME280;31824;49.648;8.640;2023-02-13T04:29:45;102414.78;;;0.52;100.00
46087;BME280;31824;49.648;8.640;2023-02-13T04:32:47;102413.94;;;0.57;100.00
46087;BME280;31824;49.648;8.640;2023-02-13T04:35:49;102408.41;;;0.65;100.00
46087;BME280;31824;49.648;8.640;2023-02-13T04:38:51;102415.38;;;0.61;100.00
46087;BME280;31824;49.648;8.640;2023-02-13T04:41:54;102413.63;;;0.71;100.00
46087;BME280;31824;49.648;8.640;2023-02-13T04:44:56;102413.56;;;0.65;100.00
46087;BME280;31824;49.648;8.640;2023-02-13T04:47:57;102412.03;;;0.56;100.00
46087;BME280;31824;49.648;8.640;2023-02-13T04:50:59;102414.44;;;0.60;100.00
46087;BME280;31824;49.648;8.640;2023-02-13T04:54:01;102406.66;;;0.60;100.00
46087;BME280;31824;49.648;8.640;2023-02-13T04:57:04;102406.06;;;0.67;100.00
46087;BME280;31824;49.648;8.640;2023-02-13T05:00:07;102402.13;;;0.75;100.00
46087;BME280;31824;49.648;8.640;2023-02-13T05:03:10;102403.75;;;1.11;100.00
46087;BME280;31824;49.648;8.640;2023-02-13T05:06:13;102402.75;;;1.26;100.00
46087;BME280;31824;49.648;8.640;2023-02-13T05:09:14;102398.22;;;1.19;100.00
46087;BME280;31824;49.648;8.640;2023-02-13T05:12:17;102408.25;;;1.12;100.00
46087;BME280;31824;49.648;8.640;2023-02-13T05:15:19;102403.28;;;1.56;100.00
46087;BME280;31824;49.648;8.640;2023-02-13T05:18:23;102400.47;;;1.54;100.00
46087;BME280;31824;49.648;8.640;2023-02-13T05:21:24;102403.31;;;1.34;100.00
46087;BME280;31824;49.648;8.640;2023-02-13T05:24:45;102403.31;;;1.34;100.00
46087;BME280;31824;49.648;8.640;2023-02-13T05:27:48;102409.41;;;1.56;100.00
46087;BME280;31824;49.648;8.640;2023-02-13T05:30:50;102401.00;;;1.36;100.00
46087;BME280;31824;49.648;8.640;2023-02-13T05:33:52;102409.38;;;1.08;100.00
46087;BME280;31824;49.648;8.640;2023-02-13T05:36:54;102409.69;;;0.94;100.00
46087;BME280;31824;49.648;8.640;2023-02-13T05:39:56;102411.41;;;1.42;100.00
46087;BME280;31824;49.648;8.640;2023-02-13T05:43:00;102397.28;;;1.18;100.00
46087;BME280;31824;49.648;8.640;2023-02-13T05:46:03;102394.59;;;1.34;100.00
46087;BME280;31824;49.648;8.640;2023-02-13T05:49:05;102393.47;;;1.16;100.00
46087;BME280;31824;49.648;8.640;2023-02-13T05:52:07;102403.28;;;1.08;100.00
46087;BME280;31824;49.648;8.640;2023-02-13T05:55:09;102402.13;;;0.90;100.00
46087;BME280;31824;49.648;8.640;2023-02-13T05:58:12;102403.84;;;0.80;100.00
46087;BME280;31824;49.648;8.640;2023-02-13T06:01:14;102399.22;;;0.83;100.00
46087;BME280;31824;49.648;8.640;2023-02-13T06:04:15;102395.41;;;0.81;100.00
46087;BME280;31824;49.648;8.640;2023-02-13T06:07:17;102405.63;;;0.91;100.00
46087;BME280;31824;49.648;8.640;2023-02-13T06:10:19;102401.22;;;1.16;100.00
46087;BME280;31824;49.648;8.640;2023-02-13T06:13:22;102404.69;;;0.90;100.00
46087;BME280;31824;49.648;8.640;2023-02-13T06:16:24;102404.81;;;0.80;100.00
46087;BME280;31824;49.648;8.640;2023-02-13T06:19:26;102416.75;;;0.59;100.00
46087;BME280;31824;49.648;8.640;2023-02-13T06:22:27;102404.00;;;0.55;100.00
46087;BME280;31824;49.648;8.640;2023-02-13T06:25:29;102412.69;;;0.55;100.00
46087;BME280;31824;49.648;8.640;2023-02-13T06:28:32;102422.19;;;0.45;100.00
46087;BME280;31824;49.648;8.640;2023-02-13T06:31:34;102412.56;;;0.44;100.00
46087;BME280;31824;49.648;8.640;2023-02-13T06:34:36;102415.06;;;0.75;100.00
46087;BME280;31824;49.648;8.640;2023-02-13T06:37:38;102412.09;;;0.62;100.00
46087;BME280;31824;49.648;8.640;2023-02-13T06:40:40;102414.75;;;0.67;100.00
46087;BME280;31824;49.648;8.640;2023-02-13T06:43:43;102419.91;;;0.67;100.00
46087;BME280;31824;49.648;8.640;2023-02-13T06:46:45;102414.25;;;1.01;100.00
46087;BME280;31824;49.648;8.640;2023-02-13T06:49:46;102422.94;;;1.01;100.00
46087;BME280;31824;49.648;8.640;2023-02-13T06:52:50;102425.94;;;1.14;100.00
46087;BME280;31824;49.648;8.640;2023-02-13T06:55:52;102429.22;;;0.77;100.00
46087;BME280;31824;49.648;8.640;2023-02-13T06:58:56;102433.38;;;0.71;100.00
46087;BME280;31824;49.648;8.640;2023-02-13T07:01:57;102418.91;;;0.61;100.00
46087;BME280;31824;49.648;8.640;2023-02-13T07:04:59;102429.94;;;0.60;100.00
46087;BME280;31824;49.648;8.640;2023-02-13T07:08:02;102440.81;;;0.63;100.00
46087;BME280;31824;49.648;8.640;2023-02-13T07:11:03;102436.31;;;0.62;100.00
46087;BME280;31824;49.648;8.640;2023-02-13T07:14:07;102429.88;;;0.55;100.00
46087;BME280;31824;49.648;8.640;2023-02-13T07:17:09;102433.47;;;0.61;100.00
46087;BME280;31824;49.648;8.640;2023-02-13T07:20:12;102435.63;;;0.63;100.00
46087;BME280;31824;49.648;8.640;2023-02-13T07:23:13;102443.06;;;0.56;100.00
46087;BME280;31824;49.648;8.640;2023-02-13T07:26:15;102449.78;;;0.65;100.00
46087;BME280;31824;49.648;8.640;2023-02-13T07:29:19;102441.66;;;0.58;100.00
46087;BME280;31824;49.648;8.640;2023-02-13T07:32:20;102447.19;;;0.65;100.00
46087;BME280;31824;49.648;8.640;2023-02-13T07:35:22;102445.50;;;0.81;100.00
46087;BME280;31824;49.648;8.640;2023-02-13T07:38:25;102441.97;;;0.81;100.00
46087;BME280;31824;49.648;8.640;2023-02-13T07:41:27;102448.38;;;0.67;100.00
46087;BME280;31824;49.648;8.640;2023-02-13T07:44:30;102446.47;;;0.66;100.00
46087;BME280;31824;49.648;8.640;2023-02-13T07:47:32;102442.78;;;0.70;100.00
46087;BME280;31824;49.648;8.640;2023-02-13T07:50:34;102453.63;;;0.73;100.00
46087;BME280;31824;49.648;8.640;2023-02-13T07:53:36;102447.38;;;0.61;100.00
46087;BME280;31824;49.648;8.640;2023-02-13T07:56:37;102443.56;;;0.59;100.00
46087;BME280;31824;49.648;8.640;2023-02-13T07:59:41;102446.31;;;0.55;100.00
46087;BME280;31824;49.648;8.640;2023-02-13T08:02:43;102447.88;;;0.64;100.00
46087;BME280;31824;49.648;8.640;2023-02-13T08:05:46;102449.06;;;0.82;100.00
46087;BME280;31824;49.648;8.640;2023-02-13T08:08:48;102445.06;;;0.84;100.00
46087;BME280;31824;49.648;8.640;2023-02-13T08:12:10;102453.63;;;1.10;100.00
46087;BME280;31824;49.648;8.640;2023-02-13T08:15:14;102455.53;;;1.11;100.00
46087;BME280;31824;49.648;8.640;2023-02-13T08:18:16;102460.66;;;1.26;100.00
46087;BME280;31824;49.648;8.640;2023-02-13T08:21:20;102452.06;;;1.37;100.00
46087;BME280;31824;49.648;8.640;2023-02-13T08:24:22;102462.25;;;1.41;100.00
46087;BME280;31824;49.648;8.640;2023-02-13T08:27:24;102455.06;;;1.50;100.00
46087;BME280;31824;49.648;8.640;2023-02-13T08:30:28;102454.53;;;1.68;100.00
46087;BME280;31824;49.648;8.640;2023-02-13T08:33:30;102459.94;;;1.69;100.00
46087;BME280;31824;49.648;8.640;2023-02-13T08:36:32;102461.41;;;1.73;100.00
46087;BME280;31824;49.648;8.640;2023-02-13T08:39:34;102458.28;;;1.91;100.00
46087;BME280;31824;49.648;8.640;2023-02-13T08:42:36;102462.13;;;1.99;100.00
46087;BME280;31824;49.648;8.640;2023-02-13T08:45:39;102454.63;;;2.06;100.00
46087;BME280;31824;49.648;8.640;2023-02-13T08:48:41;102452.78;;;2.11;100.00
46087;BME280;31824;49.648;8.640;2023-02-13T08:51:43;102454.88;;;2.34;100.00
46087;BME280;31824;49.648;8.640;2023-02-13T08:54:44;102454.25;;;2.47;100.00
46087;BME280;31824;49.648;8.640;2023-02-13T08:57:46;102450.72;;;2.46;100.00
46087;BME280;31824;49.648;8.640;2023-02-13T09:00:50;102445.34;;;2.56;100.00
46087;BME280;31824;49.648;8.640;2023-02-13T09:03:52;102441.19;;;2.68;100.00
46087;BME280;31824;49.648;8.640;2023-02-13T09:06:54;102442.03;;;3.01;100.00
46087;BME280;31824;49.648;8.640;2023-02-13T09:09:56;102444.66;;;3.07;100.00
46087;BME280;31824;49.648;8.640;2023-02-13T09:12:58;102444.97;;;3.31;100.00
46087;BME280;31824;49.648;8.640;2023-02-13T09:16:05;102440.78;;;3.54;100.00
46087;BME280;31824;49.648;8.640;2023-02-13T09:19:07;102438.94;;;3.87;100.00
46087;BME280;31824;49.648;8.640;2023-02-13T09:22:09;102438.44;;;4.06;100.00
46087;BME280;31824;49.648;8.640;2023-02-13T09:25:10;102442.25;;;4.14;100.00
46087;BME280;31824;49.648;8.640;2023-02-13T09:28:12;102440.56;;;4.37;100.00
46087;BME280;31824;49.648;8.640;2023-02-13T09:31:17;102434.16;;;4.52;100.00
46087;BME280;31824;49.648;8.640;2023-02-13T09:34:20;102429.91;;;4.59;100.00
46087;BME280;31824;49.648;8.640;2023-02-13T09:37:22;102439.53;;;4.82;100.00
46087;BME280;31824;49.648;8.640;2023-02-13T09:40:29;102441.63;;;4.90;100.00
46087;BME280;31824;49.648;8.640;2023-02-13T09:43:53;102430.94;;;5.00;100.00
46087;BME280;31824;49.648;8.640;2023-02-13T09:46:58;102438.91;;;5.19;100.00
46087;BME280;31824;49.648;8.640;2023-02-13T09:50:02;102438.34;;;5.33;100.00
46087;BME280;31824;49.648;8.640;2023-02-13T09:53:03;102442.31;;;5.48;100.00
46087;BME280;31824;49.648;8.640;2023-02-13T09:56:09;102444.28;;;5.73;100.00
46087;BME280;31824;49.648;8.640;2023-02-13T09:59:30;102437.50;;;5.92;100.00
46087;BME280;31824;49.648;8.640;2023-02-13T10:02:42;102441.28;;;6.00;100.00
46087;BME280;31824;49.648;8.640;2023-02-13T10:05:57;102443.34;;;6.08;100.00
46087;BME280;31824;49.648;8.640;2023-02-13T10:09:08;102433.09;;;6.39;100.00
46087;BME280;31824;49.648;8.640;2023-02-13T10:12:23;102440.16;;;6.46;100.00
46087;BME280;31824;49.648;8.640;2023-02-13T10:15:30;102435.59;;;6.51;100.00
46087;BME280;31824;49.648;8.640;2023-02-13T10:18:42;102428.09;;;6.65;100.00
46087;BME280;31824;49.648;8.640;2023-02-13T10:21:50;102428.84;;;6.83;100.00
46087;BME280;31824;49.648;8.640;2023-02-13T10:24:56;102428.75;;;7.07;100.00
46087;BME280;31824;49.648;8.640;2023-02-13T10:28:05;102433.47;;;7.28;100.00
46087;BME280;31824;49.648;8.640;2023-02-13T10:31:13;102427.50;;;7.48;100.00
46087;BME280;31824;49.648;8.640;2023-02-13T10:34:20;102422.72;;;7.51;100.00
46087;BME280;31824;49.648;8.640;2023-02-13T10:37:22;102426.09;;;7.63;100.00
46087;BME280;31824;49.648;8.640;2023-02-13T10:40:30;102421.88;;;7.89;100.00
46087;BME280;31824;49.648;8.640;2023-02-13T10:43:38;102418.81;;;7.86;100.00
46087;BME280;31824;49.648;8.640;2023-02-13T10:46:52;102406.41;;;8.03;100.00
46087;BME280;31824;49.648;8.640;2023-02-13T10:50:16;102407.38;;;8.04;100.00
46087;BME280;31824;49.648;8.640;2023-02-13T10:53:27;102410.38;;;8.20;100.00
46087;BME280;31824;49.648;8.640;2023-02-13T10:56:38;102403.69;;;8.35;100.00
46087;BME280;31824;49.648;8.640;2023-02-13T10:59:54;102403.53;;;8.46;100.00
46087;BME280;31824;49.648;8.640;2023-02-13T11:02:58;102402.03;;;8.74;100.00
46087;BME280;31824;49.648;8.640;2023-02-13T11:06:07;102393.56;;;8.56;100.00
46087;BME280;31824;49.648;8.640;2023-02-13T11:09:09;102392.31;;;8.60;100.00
46087;BME280;31824;49.648;8.640;2023-02-13T11:12:25;102393.66;;;8.76;100.00
46087;BME280;31824;49.648;8.640;2023-02-13T11:15:28;102386.25;;;9.00;100.00
46087;BME280;31824;49.648;8.640;2023-02-13T11:18:32;102384.44;;;9.39;100.00
46087;BME280;31824;49.648;8.640;2023-02-13T11:21:36;102380.41;;;9.48;100.00
46087;BME280;31824;49.648;8.640;2023-02-13T11:24:40;102377.50;;;9.39;100.00
46087;BME280;31824;49.648;8.640;2023-02-13T11:27:43;102374.00;;;9.66;100.00
46087;BME280;31824;49.648;8.640;2023-02-13T11:30:45;102381.88;;;9.66;100.00
46087;BME280;31824;49.648;8.640;2023-02-13T11:33:49;102371.22;;;9.92;100.00
46087;BME280;31824;49.648;8.640;2023-02-13T11:37:08;102364.88;;;9.97;100.00
46087;BME280;31824;49.648;8.640;2023-02-13T11:40:28;102361.16;;;10.29;100.00
46087;BME280;31824;49.648;8.640;2023-02-13T11:43:33;102361.06;;;10.15;100.00
46087;BME280;31824;49.648;8.640;2023-02-13T11:46:44;102356.84;;;10.30;100.00
46087;BME280;31824;49.648;8.640;2023-02-13T11:49:46;102356.47;;;10.34;100.00
46087;BME280;31824;49.648;8.640;2023-02-13T11:52:55;102359.59;;;10.93;100.00
46087;BME280;31824;49.648;8.640;2023-02-13T11:56:04;102353.44;;;11.22;100.00
46087;BME280;31824;49.648;8.640;2023-02-13T11:59:12;102357.59;;;11.27;100.00
46087;BME280;31824;49.648;8.640;2023-02-13T12:02:17;102353.47;;;11.29;100.00
46087;BME280;31824;49.648;8.640;2023-02-13T12:05:22;102356.56;;;10.90;100.00
46087;BME280;31824;49.648;8.640;2023-02-13T12:08:26;102356.31;;;11.30;100.00
46087;BME280;31824;49.648;8.640;2023-02-13T12:11:35;102352.38;;;11.48;100.00
46087;BME280;31824;49.648;8.640;2023-02-13T12:14:42;102348.59;;;11.82;100.00
46087;BME280;31824;49.648;8.640;2023-02-13T12:17:50;102342.81;;;11.99;100.00
46087;BME280;31824;49.648;8.640;2023-02-13T12:20:56;102345.56;;;11.94;100.00
46087;BME280;31824;49.648;8.640;2023-02-13T12:24:08;102347.84;;;11.47;100.00
46087;BME280;31824;49.648;8.640;2023-02-13T12:27:18;102344.94;;;11.03;100.00
46087;BME280;31824;49.648;8.640;2023-02-13T12:30:35;102340.91;;;11.77;100.00
46087;BME280;31824;49.648;8.640;2023-02-13T12:37:19;102334.66;;;12.20;100.00
46087;BME280;31824;49.648;8.640;2023-02-13T12:40:36;102335.41;;;11.90;100.00
46087;BME280;31824;49.648;8.640;2023-02-13T12:43:57;102336.66;;;12.89;100.00
46087;BME280;31824;49.648;8.640;2023-02-13T12:47:12;102329.25;;;11.96;100.00
46087;BME280;31824;49.648;8.640;2023-02-13T12:50:26;102323.56;;;12.67;100.00
46087;BME280;31824;49.648;8.640;2023-02-13T12:53:57;102316.25;;;11.91;100.00
46087;BME280;31824;49.648;8.640;2023-02-13T12:57:13;102309.28;;;12.65;100.00
46087;BME280;31824;49.648;8.640;2023-02-13T13:00:29;102318.78;;;12.48;100.00
46087;BME280;31824;49.648;8.640;2023-02-13T13:03:45;102312.78;;;12.28;100.00
46087;BME280;31824;49.648;8.640;2023-02-13T13:07:17;102311.13;;;12.73;100.00
46087;BME280;31824;49.648;8.640;2023-02-13T13:10:35;102307.31;;;13.62;100.00
46087;BME280;31824;49.648;8.640;2023-02-13T13:13:49;102310.34;;;14.52;100.00
46087;BME280;31824;49.648;8.640;2023-02-13T13:17:00;102296.28;;;15.26;100.00
46087;BME280;31824;49.648;8.640;2023-02-13T13:20:25;102294.94;;;15.72;100.00
46087;BME280;31824;49.648;8.640;2023-02-13T13:23:31;102291.63;;;15.99;100.00
46087;BME280;31824;49.648;8.640;2023-02-13T13:26:37;102286.03;;;16.05;100.00
46087;BME280;31824;49.648;8.640;2023-02-13T13:29:45;102286.97;;;16.14;100.00
46087;BME280;31824;49.648;8.640;2023-02-13T13:32:53;102292.63;;;14.60;100.00
46087;BME280;31824;49.648;8.640;2023-02-13T13:36:02;102288.66;;;14.64;100.00
46087;BME280;31824;49.648;8.640;2023-02-13T13:39:15;102276.06;;;15.35;100.00
46087;BME280;31824;49.648;8.640;2023-02-13T13:42:28;102282.19;;;17.43;100.00
46087;BME280;31824;49.648;8.640;2023-02-13T13:45:41;102270.13;;;16.58;100.00
46087;BME280;31824;49.648;8.640;2023-02-13T13:48:59;102276.66;;;16.00;100.00
46087;BME280;31824;49.648;8.640;2023-02-13T13:52:19;102268.69;;;16.09;100.00
46087;BME280;31824;49.648;8.640;2023-02-13T13:58:57;102264.81;;;17.19;100.00
46087;BME280;31824;49.648;8.640;2023-02-13T14:05:58;102257.63;;;16.04;100.00
46087;BME280;31824;49.648;8.640;2023-02-13T14:12:36;102252.25;;;15.11;100.00
46087;BME280;31824;49.648;8.640;2023-02-13T14:15:50;102250.25;;;17.15;100.00
46087;BME280;31824;49.648;8.640;2023-02-13T14:18:52;102244.88;;;18.25;100.00
46087;BME280;31824;49.648;8.640;2023-02-13T14:22:25;102237.56;;;15.73;100.00
46087;BME280;31824;49.648;8.640;2023-02-13T14:25:28;102230.38;;;14.55;100.00
46087;BME280;31824;49.648;8.640;2023-02-13T14:28:32;102235.22;;;14.18;100.00
46087;BME280;31824;49.648;8.640;2023-02-13T14:31:36;102226.84;;;13.91;100.00
46087;BME280;31824;49.648;8.640;2023-02-13T14:34:40;102220.50;;;13.81;100.00
46087;BME280;31824;49.648;8.640;2023-02-13T14:37:50;102223.66;;;14.18;100.00
46087;BME280;31824;49.648;8.640;2023-02-13T14:40:52;102225.06;;;13.43;100.00
46087;BME280;31824;49.648;8.640;2023-02-13T14:43:55;102234.94;;;13.37;100.00
46087;BME280;31824;49.648;8.640;2023-02-13T14:46:59;102221.34;;;13.11;100.00
46087;BME280;31824;49.648;8.640;2023-02-13T14:50:04;102220.88;;;12.99;100.00
46087;BME280;31824;49.648;8.640;2023-02-13T14:53:14;102227.31;;;12.71;100.00
46087;BME280;31824;49.648;8.640;2023-02-13T14:56:19;102221.13;;;12.93;100.00
46087;BME280;31824;49.648;8.640;2023-02-13T14:59:25;102221.56;;;12.82;100.00
46087;BME280;31824;49.648;8.640;2023-02-13T15:02:32;102221.16;;;12.56;100.00
46087;BME280;31824;49.648;8.640;2023-02-13T15:05:36;102212.09;;;12.61;100.00
46087;BME280;31824;49.648;8.640;2023-02-13T15:08:44;102215.84;;;12.63;100.00
46087;BME280;31824;49.648;8.640;2023-02-13T15:11:47;102217.00;;;12.58;100.00
46087;BME280;31824;49.648;8.640;2023-02-13T15:14:50;102214.75;;;12.54;100.00
46087;BME280;31824;49.648;8.640;2023-02-13T15:17:53;102225.72;;;12.49;100.00
46087;BME280;31824;49.648;8.640;2023-02-13T15:20:58;102212.63;;;12.65;100.00
46087;BME280;31824;49.648;8.640;2023-02-13T15:24:03;102211.72;;;12.58;100.00
46087;BME280;31824;49.648;8.640;2023-02-13T15:27:06;102220.81;;;12.15;100.00
46087;BME280;31824;49.648;8.640;2023-02-13T15:30:19;102225.94;;;12.06;100.00
46087;BME280;31824;49.648;8.640;2023-02-13T15:33:23;102225.28;;;12.23;100.00
46087;BME280;31824;49.648;8.640;2023-02-13T15:36:33;102214.78;;;12.09;100.00
46087;BME280;31824;49.648;8.640;2023-02-13T15:39:36;102218.78;;;12.05;100.00
46087;BME280;31824;49.648;8.640;2023-02-13T15:42:38;102220.13;;;11.87;100.00
46087;BME280;31824;49.648;8.640;2023-02-13T15:45:42;102219.91;;;11.86;100.00
46087;BME280;31824;49.648;8.640;2023-02-13T15:48:44;102217.53;;;11.73;100.00
46087;BME280;31824;49.648;8.640;2023-02-13T15:51:48;102217.88;;;11.76;100.00
46087;BME280;31824;49.648;8.640;2023-02-13T15:54:53;102216.44;;;11.56;100.00
46087;BME280;31824;49.648;8.640;2023-02-13T15:57:57;102222.22;;;11.68;100.00
46087;BME280;31824;49.648;8.640;2023-02-13T16:01:02;102224.28;;;11.71;100.00
46087;BME280;31824;49.648;8.640;2023-02-13T16:04:07;102210.97;;;11.55;100.00
46087;BME280;31824;49.648;8.640;2023-02-13T16:07:11;102211.16;;;11.49;100.00
46087;BME280;31824;49.648;8.640;2023-02-13T16:10:16;102213.03;;;11.50;100.00
46087;BME280;31824;49.648;8.640;2023-02-13T16:13:18;102206.09;;;11.43;100.00
46087;BME280;31824;49.648;8.640;2023-02-13T16:16:22;102205.94;;;11.35;100.00
46087;BME280;31824;49.648;8.640;2023-02-13T16:19:30;102209.69;;;11.29;100.00
46087;BME280;31824;49.648;8.640;2023-02-13T16:22:35;102205.38;;;11.15;100.00
46087;BME280;31824;49.648;8.640;2023-02-13T16:25:39;102206.50;;;11.03;100.00
46087;BME280;31824;49.648;8.640;2023-02-13T16:28:44;102214.34;;;10.60;100.00
46087;BME280;31824;49.648;8.640;2023-02-13T16:31:48;102212.53;;;10.31;100.00